Aérodrome :
LOGIN :

S'inscrire | Disclaimer

   EN    FR    IT 

 










Légende :    VFR   VFR Marginal   IFR   IFR Intensif   IFR Très Intensif
Visi : 
Plafond : 
>= 8 km
>= 3000ft
5 à 8 km
1000 à 3000 ft
1500m à 5 km
500 à 1000 ft
800 à 1500m
200 à 500 ft
< 800m
< 200 ft
Symboles :   Orages  Brouillard  Fortes neiges  Fortes précipitations  Vent > 20 kt
SIGMETs :   Divers  Orages  Givrage  Turbulence  Onde Orograph.  Cendres Volcan.







- Altitude de l'aérodrome : 495 ft
- Code IATA : BUD


LHBP - Budapest Ferihegy

DERNIER METAR :
  • 130930Z VRB02KT 8000 NSC 01/01 Q1021 NOSIG

METARs EXPIRÉS :
  • 130900Z VRB02KT 8000 3800SE NSC M00/M00 Q1022 NOSIG
  • 130830Z VRB01KT 8000 3800SE NSC M02/M02 Q1022 NOSIG
  • 130800Z 00000KT 8000 3800SE NSC M03/M03 Q1022 NOSIG
  • 130730Z VRB01KT 7000 FZMIFG FEW001 M05/M05 Q1022 BECMG 8000 NSW
  • 130700Z 00000KT 7000 R31R/1500U FZMIFG NSC M06/M06 Q1021 BECMG 8000 NSW
  • 130641Z VRB03KT 7000 FZMIFG NSC M05/M05 Q1021 BECMG 8000 NSW

TAF TAF LHBP
Valide du 13 à 06h jusqu'au 14 à 06h UTC


130515Z 1306/1406 VRB03KT 0400 FZFG BKN001
BECMG 1306/1308 8000 NSW SCT033
BECMG 1313/1315 CAVOK
BECMG 1318/1320 5000 BR
TEMPO 1320/1401 1400 FZBCFG BR BKN001
TEMPO 1401/1406 02005KT 3000 BR SCT025
Pas de NOTAMs connus pour ce terrain.



MET'MAP, la Météo Aéronautique d'un coup d'oeil ! - Copyright ORBIFLY Décembre 2007 - Disclaimer

ORBIFLY MET'MAP TEAM :

Programmation & Développement : Alexandra Zaïnal
Conception & Développement : Baudouin d'Aumeries
Co-Programmation & Développement : Marc-Olivier Méhu
Soutien technique & logistique : Manuel Goepfert

Contact : metmap@orbifly.com




SOURCES & CREDITS :

   NOAA